METAR Gardermoen

ENGM 280750Z VRB01KT CAVOK 04/M02 Q1020 NOSIG

Webcam Kjeller

Webcam Eggemoen